sensor_id;sensor_type;location;lat;lon;timestamp;P1;durP1;ratioP1;P2;durP2;ratioP2
11418;SDS011;32800;44.876;13.880;2023-09-12T00:01:49;7.28;;;5.60;;
11418;SDS011;32800;44.876;13.880;2023-09-12T00:04:14;8.57;;;5.57;;
11418;SDS011;32800;44.876;13.880;2023-09-12T00:06:40;6.57;;;5.50;;
11418;SDS011;32800;44.876;13.880;2023-09-12T00:09:05;7.63;;;6.00;;
11418;SDS011;32800;44.876;13.880;2023-09-12T00:11:31;6.78;;;6.13;;
11418;SDS011;32800;44.876;13.880;2023-09-12T00:13:56;7.35;;;6.28;;
11418;SDS011;32800;44.876;13.880;2023-09-12T00:16:24;7.70;;;6.30;;
11418;SDS011;32800;44.876;13.880;2023-09-12T00:18:49;8.30;;;5.57;;
11418;SDS011;32800;44.876;13.880;2023-09-12T00:21:15;9.10;;;5.93;;
11418;SDS011;32800;44.876;13.880;2023-09-12T00:23:40;9.93;;;6.10;;
11418;SDS011;32800;44.876;13.880;2023-09-12T00:26:06;6.82;;;5.20;;
11418;SDS011;32800;44.876;13.880;2023-09-12T00:28:31;7.75;;;5.90;;
11418;SDS011;32800;44.876;13.880;2023-09-12T00:30:59;6.68;;;5.55;;
11418;SDS011;32800;44.876;13.880;2023-09-12T00:33:24;6.28;;;5.68;;
11418;SDS011;32800;44.876;13.880;2023-09-12T00:35:50;6.68;;;5.53;;
11418;SDS011;32800;44.876;13.880;2023-09-12T00:38:15;6.53;;;5.80;;
11418;SDS011;32800;44.876;13.880;2023-09-12T00:40:41;9.57;;;6.13;;
11418;SDS011;32800;44.876;13.880;2023-09-12T00:43:06;6.57;;;5.75;;
11418;SDS011;32800;44.876;13.880;2023-09-12T00:45:32;7.72;;;5.68;;
11418;SDS011;32800;44.876;13.880;2023-09-12T00:47:58;7.13;;;5.80;;
11418;SDS011;32800;44.876;13.880;2023-09-12T00:50:24;8.15;;;5.88;;
11418;SDS011;32800;44.876;13.880;2023-09-12T00:52:50;7.75;;;5.53;;
11418;SDS011;32800;44.876;13.880;2023-09-12T00:55:16;9.85;;;6.25;;
11418;SDS011;32800;44.876;13.880;2023-09-12T00:57:42;7.93;;;5.70;;
11418;SDS011;32800;44.876;13.880;2023-09-12T01:00:08;8.40;;;5.80;;
11418;SDS011;32800;44.876;13.880;2023-09-12T01:02:38;9.15;;;5.47;;
11418;SDS011;32800;44.876;13.880;2023-09-12T01:05:05;9.00;;;5.95;;
11418;SDS011;32800;44.876;13.880;2023-09-12T01:07:34;7.70;;;5.38;;
11418;SDS011;32800;44.876;13.880;2023-09-12T01:10:01;6.35;;;5.75;;
11418;SDS011;32800;44.876;13.880;2023-09-12T01:12:27;6.65;;;5.88;;
11418;SDS011;32800;44.876;13.880;2023-09-12T01:14:54;5.95;;;5.35;;
11418;SDS011;32800;44.876;13.880;2023-09-12T01:17:20;5.97;;;5.38;;
11418;SDS011;32800;44.876;13.880;2023-09-12T01:19:45;8.63;;;5.68;;
11418;SDS011;32800;44.876;13.880;2023-09-12T01:27:46;6.35;;;5.75;;
11418;SDS011;32800;44.876;13.880;2023-09-12T01:30:12;8.07;;;5.72;;
11418;SDS011;32800;44.876;13.880;2023-09-12T01:32:38;6.30;;;5.60;;
11418;SDS011;32800;44.876;13.880;2023-09-12T01:35:04;6.43;;;5.75;;
11418;SDS011;32800;44.876;13.880;2023-09-12T01:37:30;6.70;;;6.00;;
11418;SDS011;32800;44.876;13.880;2023-09-12T01:39:56;10.00;;;5.75;;
11418;SDS011;32800;44.876;13.880;2023-09-12T01:42:21;6.60;;;5.38;;
11418;SDS011;32800;44.876;13.880;2023-09-12T01:44:49;5.95;;;5.35;;
11418;SDS011;32800;44.876;13.880;2023-09-12T01:47:16;5.88;;;5.28;;
11418;SDS011;32800;44.876;13.880;2023-09-12T01:49:44;6.30;;;5.40;;
11418;SDS011;32800;44.876;13.880;2023-09-12T01:52:11;5.80;;;5.20;;
11418;SDS011;32800;44.876;13.880;2023-09-12T01:54:37;6.40;;;5.40;;
11418;SDS011;32800;44.876;13.880;2023-09-12T01:57:04;6.10;;;5.50;;
11418;SDS011;32800;44.876;13.880;2023-09-12T01:59:29;6.45;;;5.60;;
11418;SDS011;32800;44.876;13.880;2023-09-12T02:01:55;6.35;;;5.45;;
11418;SDS011;32800;44.876;13.880;2023-09-12T02:04:20;5.72;;;5.22;;
11418;SDS011;32800;44.876;13.880;2023-09-12T02:06:46;5.88;;;5.32;;
11418;SDS011;32800;44.876;13.880;2023-09-12T02:09:11;6.75;;;5.88;;
11418;SDS011;32800;44.876;13.880;2023-09-12T02:11:37;19.17;;;6.47;;
11418;SDS011;32800;44.876;13.880;2023-09-12T02:14:02;11.80;;;6.00;;
11418;SDS011;32800;44.876;13.880;2023-09-12T02:16:29;7.65;;;5.50;;
11418;SDS011;32800;44.876;13.880;2023-09-12T02:18:56;9.52;;;5.75;;
11418;SDS011;32800;44.876;13.880;2023-09-12T02:21:21;8.65;;;5.60;;
11418;SDS011;32800;44.876;13.880;2023-09-12T02:23:47;9.93;;;5.60;;
11418;SDS011;32800;44.876;13.880;2023-09-12T02:26:12;9.23;;;6.15;;
11418;SDS011;32800;44.876;13.880;2023-09-12T02:28:38;11.35;;;5.65;;
11418;SDS011;32800;44.876;13.880;2023-09-12T02:31:03;8.50;;;5.40;;
11418;SDS011;32800;44.876;13.880;2023-09-12T02:33:29;10.55;;;5.38;;
11418;SDS011;32800;44.876;13.880;2023-09-12T02:35:54;8.43;;;5.65;;
11418;SDS011;32800;44.876;13.880;2023-09-12T02:38:20;8.38;;;5.22;;
11418;SDS011;32800;44.876;13.880;2023-09-12T02:40:45;8.00;;;5.45;;
11418;SDS011;32800;44.876;13.880;2023-09-12T02:43:11;8.60;;;6.00;;
11418;SDS011;32800;44.876;13.880;2023-09-12T02:45:36;10.23;;;5.65;;
11418;SDS011;32800;44.876;13.880;2023-09-12T02:48:02;9.43;;;5.57;;
11418;SDS011;32800;44.876;13.880;2023-09-12T02:50:27;8.75;;;6.00;;
11418;SDS011;32800;44.876;13.880;2023-09-12T02:52:53;8.43;;;5.20;;
11418;SDS011;32800;44.876;13.880;2023-09-12T02:55:18;9.32;;;5.82;;
11418;SDS011;32800;44.876;13.880;2023-09-12T02:57:44;8.65;;;5.25;;
11418;SDS011;32800;44.876;13.880;2023-09-12T03:00:09;7.78;;;5.72;;
11418;SDS011;32800;44.876;13.880;2023-09-12T03:02:36;10.25;;;5.78;;
11418;SDS011;32800;44.876;13.880;2023-09-12T03:05:02;8.27;;;5.60;;
11418;SDS011;32800;44.876;13.880;2023-09-12T03:07:28;6.80;;;5.28;;
11418;SDS011;32800;44.876;13.880;2023-09-12T03:09:54;9.32;;;5.63;;
11418;SDS011;32800;44.876;13.880;2023-09-12T03:12:20;7.47;;;5.57;;
11418;SDS011;32800;44.876;13.880;2023-09-12T03:14:45;9.70;;;5.32;;
11418;SDS011;32800;44.876;13.880;2023-09-12T03:17:11;9.00;;;5.40;;
11418;SDS011;32800;44.876;13.880;2023-09-12T03:19:36;8.63;;;5.47;;
11418;SDS011;32800;44.876;13.880;2023-09-12T03:22:02;9.52;;;5.20;;
11418;SDS011;32800;44.876;13.880;2023-09-12T03:24:28;7.47;;;5.35;;
11418;SDS011;32800;44.876;13.880;2023-09-12T03:26:54;8.60;;;5.55;;
11418;SDS011;32800;44.876;13.880;2023-09-12T03:29:19;8.07;;;5.60;;
11418;SDS011;32800;44.876;13.880;2023-09-12T03:31:45;8.15;;;5.60;;
11418;SDS011;32800;44.876;13.880;2023-09-12T03:34:10;9.77;;;5.70;;
11418;SDS011;32800;44.876;13.880;2023-09-12T03:36:36;7.35;;;5.60;;
11418;SDS011;32800;44.876;13.880;2023-09-12T03:39:01;8.48;;;5.82;;
11418;SDS011;32800;44.876;13.880;2023-09-12T03:41:30;9.00;;;5.82;;
11418;SDS011;32800;44.876;13.880;2023-09-12T03:43:55;10.27;;;5.53;;
11418;SDS011;32800;44.876;13.880;2023-09-12T03:46:21;8.25;;;5.50;;
11418;SDS011;32800;44.876;13.880;2023-09-12T03:48:47;5.60;;;5.10;;
11418;SDS011;32800;44.876;13.880;2023-09-12T03:51:13;8.77;;;5.28;;
11418;SDS011;32800;44.876;13.880;2023-09-12T03:53:38;8.00;;;5.50;;
11418;SDS011;32800;44.876;13.880;2023-09-12T03:56:04;7.38;;;5.07;;
11418;SDS011;32800;44.876;13.880;2023-09-12T03:58:29;8.45;;;5.85;;
11418;SDS011;32800;44.876;13.880;2023-09-12T04:00:55;9.73;;;5.13;;
11418;SDS011;32800;44.876;13.880;2023-09-12T04:03:21;7.95;;;5.38;;
11418;SDS011;32800;44.876;13.880;2023-09-12T04:05:46;7.38;;;5.10;;
11418;SDS011;32800;44.876;13.880;2023-09-12T04:08:12;5.80;;;5.07;;
11418;SDS011;32800;44.876;13.880;2023-09-12T04:10:38;7.80;;;4.90;;
11418;SDS011;32800;44.876;13.880;2023-09-12T04:13:04;10.00;;;5.57;;
11418;SDS011;32800;44.876;13.880;2023-09-12T04:15:29;8.10;;;5.07;;
11418;SDS011;32800;44.876;13.880;2023-09-12T04:17:55;8.05;;;5.30;;
11418;SDS011;32800;44.876;13.880;2023-09-12T04:20:24;8.68;;;5.55;;
11418;SDS011;32800;44.876;13.880;2023-09-12T04:22:49;5.45;;;4.95;;
11418;SDS011;32800;44.876;13.880;2023-09-12T04:25:15;8.95;;;5.78;;
11418;SDS011;32800;44.876;13.880;2023-09-12T04:27:41;6.25;;;5.03;;
11418;SDS011;32800;44.876;13.880;2023-09-12T04:30:07;6.63;;;4.93;;
11418;SDS011;32800;44.876;13.880;2023-09-12T04:32:33;5.45;;;4.85;;
11418;SDS011;32800;44.876;13.880;2023-09-12T04:34:59;6.40;;;5.15;;
11418;SDS011;32800;44.876;13.880;2023-09-12T04:37:25;8.77;;;5.78;;
11418;SDS011;32800;44.876;13.880;2023-09-12T04:39:51;5.68;;;4.80;;
11418;SDS011;32800;44.876;13.880;2023-09-12T04:42:17;6.10;;;5.15;;
11418;SDS011;32800;44.876;13.880;2023-09-12T04:44:42;5.30;;;4.80;;
11418;SDS011;32800;44.876;13.880;2023-09-12T04:47:08;6.88;;;5.05;;
11418;SDS011;32800;44.876;13.880;2023-09-12T04:49:34;6.72;;;4.68;;
11418;SDS011;32800;44.876;13.880;2023-09-12T04:52:00;7.30;;;5.05;;
11418;SDS011;32800;44.876;13.880;2023-09-12T04:54:26;7.00;;;5.15;;
11418;SDS011;32800;44.876;13.880;2023-09-12T04:56:51;8.23;;;4.60;;
11418;SDS011;32800;44.876;13.880;2023-09-12T04:59:17;6.47;;;5.10;;
11418;SDS011;32800;44.876;13.880;2023-09-12T05:01:42;7.30;;;5.07;;
11418;SDS011;32800;44.876;13.880;2023-09-12T05:04:08;6.97;;;5.03;;
11418;SDS011;32800;44.876;13.880;2023-09-12T05:06:34;5.53;;;4.90;;
11418;SDS011;32800;44.876;13.880;2023-09-12T05:09:00;6.32;;;4.72;;
11418;SDS011;32800;44.876;13.880;2023-09-12T05:11:26;6.28;;;5.03;;
11418;SDS011;32800;44.876;13.880;2023-09-12T05:13:51;6.65;;;5.07;;
11418;SDS011;32800;44.876;13.880;2023-09-12T05:16:17;8.77;;;5.18;;
11418;SDS011;32800;44.876;13.880;2023-09-12T05:18:43;7.60;;;5.40;;
11418;SDS011;32800;44.876;13.880;2023-09-12T05:21:09;6.68;;;4.97;;
11418;SDS011;32800;44.876;13.880;2023-09-12T05:23:34;6.82;;;5.15;;
11418;SDS011;32800;44.876;13.880;2023-09-12T05:26:00;8.20;;;5.45;;
11418;SDS011;32800;44.876;13.880;2023-09-12T05:28:26;7.22;;;5.03;;
11418;SDS011;32800;44.876;13.880;2023-09-12T05:30:52;7.28;;;4.68;;
11418;SDS011;32800;44.876;13.880;2023-09-12T05:33:18;6.30;;;4.72;;
11418;SDS011;32800;44.876;13.880;2023-09-12T05:35:44;6.40;;;4.70;;
11418;SDS011;32800;44.876;13.880;2023-09-12T05:38:10;5.93;;;4.70;;
11418;SDS011;32800;44.876;13.880;2023-09-12T05:40:36;6.97;;;4.72;;
11418;SDS011;32800;44.876;13.880;2023-09-12T05:43:01;5.07;;;4.60;;
11418;SDS011;32800;44.876;13.880;2023-09-12T05:45:28;5.88;;;4.68;;
11418;SDS011;32800;44.876;13.880;2023-09-12T05:47:55;7.55;;;5.32;;
11418;SDS011;32800;44.876;13.880;2023-09-12T05:50:21;6.70;;;4.90;;
11418;SDS011;32800;44.876;13.880;2023-09-12T05:52:48;6.35;;;4.70;;
11418;SDS011;32800;44.876;13.880;2023-09-12T05:55:13;6.80;;;4.80;;
11418;SDS011;32800;44.876;13.880;2023-09-12T05:57:39;6.40;;;4.80;;
11418;SDS011;32800;44.876;13.880;2023-09-12T06:00:05;9.75;;;4.32;;
11418;SDS011;32800;44.876;13.880;2023-09-12T06:02:31;7.25;;;4.70;;
11418;SDS011;32800;44.876;13.880;2023-09-12T06:04:58;9.10;;;4.47;;
11418;SDS011;32800;44.876;13.880;2023-09-12T06:07:23;5.30;;;4.53;;
11418;SDS011;32800;44.876;13.880;2023-09-12T06:09:50;5.55;;;4.80;;
11418;SDS011;32800;44.876;13.880;2023-09-12T06:12:16;5.32;;;4.80;;
11418;SDS011;32800;44.876;13.880;2023-09-12T06:14:41;6.22;;;4.60;;
11418;SDS011;32800;44.876;13.880;2023-09-12T06:17:07;6.55;;;4.05;;
11418;SDS011;32800;44.876;13.880;2023-09-12T06:19:34;5.70;;;4.43;;
11418;SDS011;32800;44.876;13.880;2023-09-12T06:21:59;7.82;;;5.32;;
11418;SDS011;32800;44.876;13.880;2023-09-12T06:24:25;7.57;;;5.47;;
11418;SDS011;32800;44.876;13.880;2023-09-12T06:26:50;8.95;;;5.43;;
11418;SDS011;32800;44.876;13.880;2023-09-12T06:29:16;13.52;;;5.57;;
11418;SDS011;32800;44.876;13.880;2023-09-12T06:31:42;6.03;;;4.80;;
11418;SDS011;32800;44.876;13.880;2023-09-12T06:34:07;6.97;;;5.40;;
11418;SDS011;32800;44.876;13.880;2023-09-12T06:36:33;5.22;;;4.35;;
11418;SDS011;32800;44.876;13.880;2023-09-12T06:38:59;5.90;;;5.20;;
11418;SDS011;32800;44.876;13.880;2023-09-12T06:41:25;5.15;;;4.65;;
11418;SDS011;32800;44.876;13.880;2023-09-12T06:43:51;8.98;;;5.05;;
11418;SDS011;32800;44.876;13.880;2023-09-12T06:46:17;5.00;;;4.50;;
11418;SDS011;32800;44.876;13.880;2023-09-12T06:48:43;5.13;;;4.70;;
11418;SDS011;32800;44.876;13.880;2023-09-12T06:51:10;5.50;;;4.32;;
11418;SDS011;32800;44.876;13.880;2023-09-12T06:53:35;7.47;;;4.60;;
11418;SDS011;32800;44.876;13.880;2023-09-12T06:56:07;5.68;;;5.03;;
11418;SDS011;32800;44.876;13.880;2023-09-12T06:58:33;5.93;;;4.88;;
11418;SDS011;32800;44.876;13.880;2023-09-12T07:01:05;5.60;;;4.80;;
11418;SDS011;32800;44.876;13.880;2023-09-12T07:03:32;8.02;;;5.55;;
11418;SDS011;32800;44.876;13.880;2023-09-12T07:05:58;7.13;;;6.28;;
11418;SDS011;32800;44.876;13.880;2023-09-12T07:08:24;5.88;;;5.10;;
11418;SDS011;32800;44.876;13.880;2023-09-12T07:10:50;6.53;;;5.70;;
11418;SDS011;32800;44.876;13.880;2023-09-12T07:13:15;7.28;;;6.57;;
11418;SDS011;32800;44.876;13.880;2023-09-12T07:15:41;9.27;;;6.43;;
11418;SDS011;32800;44.876;13.880;2023-09-12T07:18:06;16.30;;;6.72;;
11418;SDS011;32800;44.876;13.880;2023-09-12T07:20:33;6.38;;;5.65;;
11418;SDS011;32800;44.876;13.880;2023-09-12T07:22:59;7.72;;;5.57;;
11418;SDS011;32800;44.876;13.880;2023-09-12T07:25:25;5.38;;;4.88;;
11418;SDS011;32800;44.876;13.880;2023-09-12T07:27:50;5.30;;;4.80;;
11418;SDS011;32800;44.876;13.880;2023-09-12T07:30:16;9.85;;;5.10;;
11418;SDS011;32800;44.876;13.880;2023-09-12T07:32:43;5.10;;;4.70;;
11418;SDS011;32800;44.876;13.880;2023-09-12T07:35:09;5.22;;;4.78;;
11418;SDS011;32800;44.876;13.880;2023-09-12T07:37:34;10.00;;;5.47;;
11418;SDS011;32800;44.876;13.880;2023-09-12T07:40:00;5.68;;;5.05;;
11418;SDS011;32800;44.876;13.880;2023-09-12T07:42:25;6.05;;;4.90;;
11418;SDS011;32800;44.876;13.880;2023-09-12T07:44:51;5.10;;;4.60;;
11418;SDS011;32800;44.876;13.880;2023-09-12T07:47:17;6.60;;;4.45;;
11418;SDS011;32800;44.876;13.880;2023-09-12T07:49:43;5.97;;;4.70;;
11418;SDS011;32800;44.876;13.880;2023-09-12T07:52:08;7.15;;;5.20;;
11418;SDS011;32800;44.876;13.880;2023-09-12T07:54:34;6.82;;;4.85;;
11418;SDS011;32800;44.876;13.880;2023-09-12T07:56:59;5.15;;;4.75;;
11418;SDS011;32800;44.876;13.880;2023-09-12T07:59:25;6.28;;;5.13;;
11418;SDS011;32800;44.876;13.880;2023-09-12T08:01:51;5.65;;;4.60;;
11418;SDS011;32800;44.876;13.880;2023-09-12T08:04:16;5.07;;;4.57;;
11418;SDS011;32800;44.876;13.880;2023-09-12T08:06:42;5.97;;;5.05;;
11418;SDS011;32800;44.876;13.880;2023-09-12T08:09:09;6.93;;;4.93;;
11418;SDS011;32800;44.876;13.880;2023-09-12T08:11:35;7.78;;;4.65;;
11418;SDS011;32800;44.876;13.880;2023-09-12T08:14:00;5.25;;;4.68;;
11418;SDS011;32800;44.876;13.880;2023-09-12T08:16:26;5.32;;;4.32;;
11418;SDS011;32800;44.876;13.880;2023-09-12T08:18:52;5.43;;;4.55;;
11418;SDS011;32800;44.876;13.880;2023-09-12T08:21:17;4.93;;;4.40;;
11418;SDS011;32800;44.876;13.880;2023-09-12T08:23:43;5.00;;;4.53;;
11418;SDS011;32800;44.876;13.880;2023-09-12T08:26:10;5.03;;;4.55;;
11418;SDS011;32800;44.876;13.880;2023-09-12T08:28:35;6.07;;;4.38;;
11418;SDS011;32800;44.876;13.880;2023-09-12T08:31:01;6.32;;;4.85;;
11418;SDS011;32800;44.876;13.880;2023-09-12T08:33:27;6.60;;;4.85;;
11418;SDS011;32800;44.876;13.880;2023-09-12T08:35:52;5.85;;;4.88;;
11418;SDS011;32800;44.876;13.880;2023-09-12T08:38:18;5.10;;;4.57;;
11418;SDS011;32800;44.876;13.880;2023-09-12T08:40:50;4.88;;;4.18;;
11418;SDS011;32800;44.876;13.880;2023-09-12T08:43:16;7.55;;;4.65;;
11418;SDS011;32800;44.876;13.880;2023-09-12T08:45:41;4.63;;;4.15;;
11418;SDS011;32800;44.876;13.880;2023-09-12T08:48:09;5.85;;;4.63;;
11418;SDS011;32800;44.876;13.880;2023-09-12T08:50:36;5.70;;;4.70;;
11418;SDS011;32800;44.876;13.880;2023-09-12T08:53:01;5.30;;;4.53;;
11418;SDS011;32800;44.876;13.880;2023-09-12T08:55:28;4.90;;;4.50;;
11418;SDS011;32800;44.876;13.880;2023-09-12T08:57:55;5.53;;;4.40;;
11418;SDS011;32800;44.876;13.880;2023-09-12T09:00:21;7.35;;;5.03;;
11418;SDS011;32800;44.876;13.880;2023-09-12T09:02:48;4.85;;;4.22;;
11418;SDS011;32800;44.876;13.880;2023-09-12T09:05:13;7.07;;;4.30;;
11418;SDS011;32800;44.876;13.880;2023-09-12T09:07:40;4.50;;;3.90;;
11418;SDS011;32800;44.876;13.880;2023-09-12T09:10:07;4.43;;;4.07;;
11418;SDS011;32800;44.876;13.880;2023-09-12T09:12:35;4.25;;;3.95;;
11418;SDS011;32800;44.876;13.880;2023-09-12T09:17:49;5.25;;;3.80;;
11418;SDS011;32800;44.876;13.880;2023-09-12T09:22:57;4.68;;;4.22;;
11418;SDS011;32800;44.876;13.880;2023-09-12T09:25:24;7.00;;;3.78;;
11418;SDS011;32800;44.876;13.880;2023-09-12T09:27:50;4.60;;;4.20;;
11418;SDS011;32800;44.876;13.880;2023-09-12T09:30:17;4.47;;;4.07;;
11418;SDS011;32800;44.876;13.880;2023-09-12T09:32:44;5.45;;;4.43;;
11418;SDS011;32800;44.876;13.880;2023-09-12T09:35:10;4.88;;;4.13;;
11418;SDS011;32800;44.876;13.880;2023-09-12T09:37:36;8.05;;;4.65;;
11418;SDS011;32800;44.876;13.880;2023-09-12T09:40:05;5.07;;;4.63;;
11418;SDS011;32800;44.876;13.880;2023-09-12T09:42:31;4.43;;;4.00;;
11418;SDS011;32800;44.876;13.880;2023-09-12T09:44:57;5.25;;;4.40;;
11418;SDS011;32800;44.876;13.880;2023-09-12T09:47:22;5.35;;;4.50;;
11418;SDS011;32800;44.876;13.880;2023-09-12T09:49:50;4.40;;;4.00;;
11418;SDS011;32800;44.876;13.880;2023-09-12T09:52:16;5.57;;;4.00;;
11418;SDS011;32800;44.876;13.880;2023-09-12T09:54:51;4.20;;;3.90;;
11418;SDS011;32800;44.876;13.880;2023-09-12T09:57:16;5.97;;;4.40;;
11418;SDS011;32800;44.876;13.880;2023-09-12T09:59:42;5.72;;;4.45;;
11418;SDS011;32800;44.876;13.880;2023-09-12T10:02:16;7.35;;;4.38;;
11418;SDS011;32800;44.876;13.880;2023-09-12T10:04:46;6.82;;;4.65;;
11418;SDS011;32800;44.876;13.880;2023-09-12T10:07:12;7.13;;;4.47;;
11418;SDS011;32800;44.876;13.880;2023-09-12T10:09:39;4.82;;;4.40;;
11418;SDS011;32800;44.876;13.880;2023-09-12T10:12:06;5.45;;;4.32;;
11418;SDS011;32800;44.876;13.880;2023-09-12T10:14:31;5.88;;;3.80;;
11418;SDS011;32800;44.876;13.880;2023-09-12T10:17:02;5.38;;;3.92;;
11418;SDS011;32800;44.876;13.880;2023-09-12T10:22:43;4.50;;;4.10;;
11418;SDS011;32800;44.876;13.880;2023-09-12T10:25:07;5.63;;;4.32;;
11418;SDS011;32800;44.876;13.880;2023-09-12T10:27:33;5.30;;;3.90;;
11418;SDS011;32800;44.876;13.880;2023-09-12T10:29:59;6.03;;;4.35;;
11418;SDS011;32800;44.876;13.880;2023-09-12T10:32:26;4.55;;;4.15;;
11418;SDS011;32800;44.876;13.880;2023-09-12T10:34:53;5.07;;;4.60;;
11418;SDS011;32800;44.876;13.880;2023-09-12T10:37:19;5.28;;;3.60;;
11418;SDS011;32800;44.876;13.880;2023-09-12T10:39:47;5.22;;;4.20;;
11418;SDS011;32800;44.876;13.880;2023-09-12T10:42:14;4.85;;;4.35;;
11418;SDS011;32800;44.876;13.880;2023-09-12T10:44:41;7.22;;;4.85;;
11418;SDS011;32800;44.876;13.880;2023-09-12T10:47:08;4.90;;;4.22;;
11418;SDS011;32800;44.876;13.880;2023-09-12T10:49:34;4.40;;;4.00;;
11418;SDS011;32800;44.876;13.880;2023-09-12T10:52:00;4.53;;;4.13;;
11418;SDS011;32800;44.876;13.880;2023-09-12T10:54:26;4.22;;;3.58;;
11418;SDS011;32800;44.876;13.880;2023-09-12T10:57:03;6.80;;;4.10;;
11418;SDS011;32800;44.876;13.880;2023-09-12T10:59:29;4.60;;;4.20;;
11418;SDS011;32800;44.876;13.880;2023-09-12T11:02:00;5.40;;;4.40;;
11418;SDS011;32800;44.876;13.880;2023-09-12T11:04:55;4.65;;;4.25;;
11418;SDS011;32800;44.876;13.880;2023-09-12T11:10:18;6.07;;;3.90;;
11418;SDS011;32800;44.876;13.880;2023-09-12T11:12:44;4.95;;;4.28;;
11418;SDS011;32800;44.876;13.880;2023-09-12T11:15:15;4.75;;;4.18;;
11418;SDS011;32800;44.876;13.880;2023-09-12T11:17:41;4.22;;;3.83;;
11418;SDS011;32800;44.876;13.880;2023-09-12T11:20:07;4.22;;;3.90;;
11418;SDS011;32800;44.876;13.880;2023-09-12T11:22:40;4.47;;;4.07;;
11418;SDS011;32800;44.876;13.880;2023-09-12T11:30:17;5.55;;;4.22;;
11418;SDS011;32800;44.876;13.880;2023-09-12T11:32:45;7.90;;;4.28;;
11418;SDS011;32800;44.876;13.880;2023-09-12T11:35:13;4.85;;;3.50;;
11418;SDS011;32800;44.876;13.880;2023-09-12T11:37:39;5.32;;;4.20;;
11418;SDS011;32800;44.876;13.880;2023-09-12T11:42:39;4.20;;;3.83;;
11418;SDS011;32800;44.876;13.880;2023-09-12T11:45:07;5.40;;;4.13;;
11418;SDS011;32800;44.876;13.880;2023-09-12T11:47:40;8.63;;;4.07;;
11418;SDS011;32800;44.876;13.880;2023-09-12T11:50:25;5.63;;;3.63;;
11418;SDS011;32800;44.876;13.880;2023-09-12T11:53:11;4.55;;;4.15;;
11418;SDS011;32800;44.876;13.880;2023-09-12T11:55:43;5.28;;;4.57;;
11418;SDS011;32800;44.876;13.880;2023-09-12T11:58:10;5.25;;;4.63;;
11418;SDS011;32800;44.876;13.880;2023-09-12T12:00:36;4.38;;;3.83;;
11418;SDS011;32800;44.876;13.880;2023-09-12T12:03:02;5.18;;;4.10;;
11418;SDS011;32800;44.876;13.880;2023-09-12T12:05:29;6.95;;;4.57;;
11418;SDS011;32800;44.876;13.880;2023-09-12T12:07:55;4.68;;;4.28;;
11418;SDS011;32800;44.876;13.880;2023-09-12T12:10:23;4.28;;;3.88;;
11418;SDS011;32800;44.876;13.880;2023-09-12T12:12:48;7.50;;;4.38;;
11418;SDS011;32800;44.876;13.880;2023-09-12T12:15:18;4.88;;;4.38;;
11418;SDS011;32800;44.876;13.880;2023-09-12T12:17:43;4.50;;;4.03;;
11418;SDS011;32800;44.876;13.880;2023-09-12T12:20:09;5.72;;;4.25;;
11418;SDS011;32800;44.876;13.880;2023-09-12T12:22:39;6.88;;;4.50;;
11418;SDS011;32800;44.876;13.880;2023-09-12T12:25:06;4.10;;;3.70;;
11418;SDS011;32800;44.876;13.880;2023-09-12T12:27:36;4.45;;;3.95;;
11418;SDS011;32800;44.876;13.880;2023-09-12T12:30:08;6.55;;;4.45;;
11418;SDS011;32800;44.876;13.880;2023-09-12T12:32:44;4.72;;;4.32;;
11418;SDS011;32800;44.876;13.880;2023-09-12T12:35:21;4.88;;;3.88;;
11418;SDS011;32800;44.876;13.880;2023-09-12T12:37:48;4.65;;;4.25;;
11418;SDS011;32800;44.876;13.880;2023-09-12T12:40:15;4.78;;;4.30;;
11418;SDS011;32800;44.876;13.880;2023-09-12T12:42:44;4.68;;;4.28;;
11418;SDS011;32800;44.876;13.880;2023-09-12T12:45:15;4.57;;;4.13;;
11418;SDS011;32800;44.876;13.880;2023-09-12T12:47:43;5.47;;;4.43;;
11418;SDS011;32800;44.876;13.880;2023-09-12T12:50:10;4.63;;;4.22;;
11418;SDS011;32800;44.876;13.880;2023-09-12T12:52:37;4.50;;;4.20;;
11418;SDS011;32800;44.876;13.880;2023-09-12T12:55:04;4.28;;;3.50;;
11418;SDS011;32800;44.876;13.880;2023-09-12T12:57:30;5.03;;;4.10;;
11418;SDS011;32800;44.876;13.880;2023-09-12T12:59:56;4.32;;;3.92;;
11418;SDS011;32800;44.876;13.880;2023-09-12T13:02:25;4.82;;;4.38;;
11418;SDS011;32800;44.876;13.880;2023-09-12T13:04:51;3.65;;;3.35;;
11418;SDS011;32800;44.876;13.880;2023-09-12T13:07:16;4.65;;;4.20;;
11418;SDS011;32800;44.876;13.880;2023-09-12T13:09:42;4.22;;;3.92;;
11418;SDS011;32800;44.876;13.880;2023-09-12T13:12:07;4.75;;;4.22;;
11418;SDS011;32800;44.876;13.880;2023-09-12T13:14:33;4.20;;;3.85;;
11418;SDS011;32800;44.876;13.880;2023-09-12T13:16:59;4.38;;;4.00;;
11418;SDS011;32800;44.876;13.880;2023-09-12T13:19:25;3.90;;;3.50;;
11418;SDS011;32800;44.876;13.880;2023-09-12T13:21:51;4.32;;;3.97;;
11418;SDS011;32800;44.876;13.880;2023-09-12T13:24:17;3.85;;;3.55;;
11418;SDS011;32800;44.876;13.880;2023-09-12T13:26:43;4.57;;;3.97;;
11418;SDS011;32800;44.876;13.880;2023-09-12T13:29:08;4.32;;;3.95;;
11418;SDS011;32800;44.876;13.880;2023-09-12T13:31:35;4.57;;;3.72;;
11418;SDS011;32800;44.876;13.880;2023-09-12T13:34:00;4.43;;;4.03;;
11418;SDS011;32800;44.876;13.880;2023-09-12T13:36:26;4.72;;;4.30;;
11418;SDS011;32800;44.876;13.880;2023-09-12T13:38:52;3.92;;;3.63;;
11418;SDS011;32800;44.876;13.880;2023-09-12T13:41:17;4.25;;;3.85;;
11418;SDS011;32800;44.876;13.880;2023-09-12T13:43:43;4.05;;;3.75;;
11418;SDS011;32800;44.876;13.880;2023-09-12T13:46:12;3.67;;;3.38;;
11418;SDS011;32800;44.876;13.880;2023-09-12T13:48:38;6.10;;;4.03;;
11418;SDS011;32800;44.876;13.880;2023-09-12T13:51:03;4.85;;;3.90;;
11418;SDS011;32800;44.876;13.880;2023-09-12T13:53:29;3.90;;;3.67;;
11418;SDS011;32800;44.876;13.880;2023-09-12T13:55:54;4.75;;;3.33;;
11418;SDS011;32800;44.876;13.880;2023-09-12T13:58:22;4.10;;;3.70;;
11418;SDS011;32800;44.876;13.880;2023-09-12T14:00:47;4.50;;;4.10;;
11418;SDS011;32800;44.876;13.880;2023-09-12T14:03:13;4.22;;;3.80;;
11418;SDS011;32800;44.876;13.880;2023-09-12T14:05:39;4.50;;;3.90;;
11418;SDS011;32800;44.876;13.880;2023-09-12T14:08:05;4.30;;;4.00;;
11418;SDS011;32800;44.876;13.880;2023-09-12T14:10:31;3.92;;;3.63;;
11418;SDS011;32800;44.876;13.880;2023-09-12T14:12:56;4.03;;;3.63;;
11418;SDS011;32800;44.876;13.880;2023-09-12T14:15:22;3.63;;;3.33;;
11418;SDS011;32800;44.876;13.880;2023-09-12T14:17:47;3.90;;;3.60;;
11418;SDS011;32800;44.876;13.880;2023-09-12T14:20:13;4.47;;;4.10;;
11418;SDS011;32800;44.876;13.880;2023-09-12T14:22:41;3.58;;;3.30;;
11418;SDS011;32800;44.876;13.880;2023-09-12T14:25:09;4.47;;;3.60;;
11418;SDS011;32800;44.876;13.880;2023-09-12T14:27:43;4.70;;;4.20;;
11418;SDS011;32800;44.876;13.880;2023-09-12T14:30:10;4.50;;;4.10;;
11418;SDS011;32800;44.876;13.880;2023-09-12T14:32:42;3.78;;;3.47;;
11418;SDS011;32800;44.876;13.880;2023-09-12T14:35:14;4.28;;;3.88;;
11418;SDS011;32800;44.876;13.880;2023-09-12T14:37:39;3.88;;;3.50;;
11418;SDS011;32800;44.876;13.880;2023-09-12T14:40:07;3.95;;;3.65;;
11418;SDS011;32800;44.876;13.880;2023-09-12T14:42:33;5.15;;;3.58;;
11418;SDS011;32800;44.876;13.880;2023-09-12T14:44:58;4.28;;;3.97;;
11418;SDS011;32800;44.876;13.880;2023-09-12T14:47:24;4.32;;;4.03;;
11418;SDS011;32800;44.876;13.880;2023-09-12T14:49:52;3.88;;;3.58;;
11418;SDS011;32800;44.876;13.880;2023-09-12T14:52:18;3.85;;;3.55;;
11418;SDS011;32800;44.876;13.880;2023-09-12T14:54:44;3.88;;;3.58;;